sensor_id;sensor_type;location;lat;lon;timestamp;P1;durP1;ratioP1;P2;durP2;ratioP2
36797;SDS011;22748;8.426;99.512;2022-10-12T00:03:29;20.15;;;16.40;;
36797;SDS011;22748;8.426;99.512;2022-10-12T00:06:00;22.35;;;17.42;;
36797;SDS011;22748;8.426;99.512;2022-10-12T01:21:12;19.92;;;14.70;;
36797;SDS011;22748;8.426;99.512;2022-10-12T01:23:58;18.75;;;13.57;;
36797;SDS011;22748;8.426;99.512;2022-10-12T01:26:55;18.92;;;15.00;;
36797;SDS011;22748;8.426;99.512;2022-10-12T01:32:35;16.10;;;14.50;;
36797;SDS011;22748;8.426;99.512;2022-10-12T01:35:16;17.52;;;15.70;;
36797;SDS011;22748;8.426;99.512;2022-10-12T01:37:56;19.88;;;16.52;;
36797;SDS011;22748;8.426;99.512;2022-10-12T01:40:36;21.17;;;18.23;;
36797;SDS011;22748;8.426;99.512;2022-10-12T01:43:16;19.67;;;16.60;;
36797;SDS011;22748;8.426;99.512;2022-10-12T01:45:50;19.48;;;16.05;;
36797;SDS011;22748;8.426;99.512;2022-10-12T01:48:23;21.42;;;16.73;;
36797;SDS011;22748;8.426;99.512;2022-10-12T01:50:55;17.85;;;16.00;;
36797;SDS011;22748;8.426;99.512;2022-10-12T01:53:32;33.33;;;17.33;;
36797;SDS011;22748;8.426;99.512;2022-10-12T01:56:14;23.20;;;17.05;;
36797;SDS011;22748;8.426;99.512;2022-10-12T01:58:50;20.55;;;18.02;;
36797;SDS011;22748;8.426;99.512;2022-10-12T02:01:31;38.92;;;29.48;;
36797;SDS011;22748;8.426;99.512;2022-10-12T02:04:09;32.50;;;24.45;;
36797;SDS011;22748;8.426;99.512;2022-10-12T02:06:48;19.05;;;15.32;;
36797;SDS011;22748;8.426;99.512;2022-10-12T02:09:23;22.73;;;16.27;;
36797;SDS011;22748;8.426;99.512;2022-10-12T02:11:59;16.88;;;15.07;;
36797;SDS011;22748;8.426;99.512;2022-10-12T02:14:38;16.95;;;14.68;;
36797;SDS011;22748;8.426;99.512;2022-10-12T02:17:14;15.52;;;13.82;;
36797;SDS011;22748;8.426;99.512;2022-10-12T02:19:49;15.90;;;13.43;;
36797;SDS011;22748;8.426;99.512;2022-10-12T02:22:25;15.30;;;13.73;;
36797;SDS011;22748;8.426;99.512;2022-10-12T02:25:03;16.60;;;12.85;;
36797;SDS011;22748;8.426;99.512;2022-10-12T02:27:38;16.83;;;14.23;;
36797;SDS011;22748;8.426;99.512;2022-10-12T02:30:13;13.00;;;11.70;;
36797;SDS011;22748;8.426;99.512;2022-10-12T02:32:46;12.07;;;10.90;;
36797;SDS011;22748;8.426;99.512;2022-10-12T02:35:26;18.23;;;11.38;;
36797;SDS011;22748;8.426;99.512;2022-10-12T02:38:04;18.88;;;11.13;;
36797;SDS011;22748;8.426;99.512;2022-10-12T02:40:42;47.30;;;31.58;;
36797;SDS011;22748;8.426;99.512;2022-10-12T02:43:20;17.33;;;10.15;;
36797;SDS011;22748;8.426;99.512;2022-10-12T02:45:57;8.45;;;7.35;;
36797;SDS011;22748;8.426;99.512;2022-10-12T02:48:28;10.27;;;8.20;;
36797;SDS011;22748;8.426;99.512;2022-10-12T02:51:02;9.23;;;7.55;;
36797;SDS011;22748;8.426;99.512;2022-10-12T02:53:35;10.95;;;7.05;;
36797;SDS011;22748;8.426;99.512;2022-10-12T02:56:09;11.02;;;7.07;;
36797;SDS011;22748;8.426;99.512;2022-10-12T02:58:42;9.43;;;6.13;;
36797;SDS011;22748;8.426;99.512;2022-10-12T03:01:14;8.27;;;5.78;;
36797;SDS011;22748;8.426;99.512;2022-10-12T03:03:51;8.43;;;5.97;;
36797;SDS011;22748;8.426;99.512;2022-10-12T03:06:22;10.10;;;7.40;;
36797;SDS011;22748;8.426;99.512;2022-10-12T03:08:52;10.23;;;6.72;;
36797;SDS011;22748;8.426;99.512;2022-10-12T03:11:22;10.70;;;6.70;;
36797;SDS011;22748;8.426;99.512;2022-10-12T03:13:52;9.35;;;5.38;;
36797;SDS011;22748;8.426;99.512;2022-10-12T03:16:22;10.18;;;6.07;;
36797;SDS011;22748;8.426;99.512;2022-10-12T03:18:53;7.45;;;6.00;;
36797;SDS011;22748;8.426;99.512;2022-10-12T03:21:26;6.93;;;6.22;;
36797;SDS011;22748;8.426;99.512;2022-10-12T03:23:56;10.15;;;8.43;;
36797;SDS011;22748;8.426;99.512;2022-10-12T03:26:26;8.98;;;6.38;;
36797;SDS011;22748;8.426;99.512;2022-10-12T03:32:07;11.70;;;8.63;;
36797;SDS011;22748;8.426;99.512;2022-10-12T03:34:37;12.80;;;7.57;;
36797;SDS011;22748;8.426;99.512;2022-10-12T03:37:11;9.48;;;7.05;;
36797;SDS011;22748;8.426;99.512;2022-10-12T03:39:46;10.95;;;6.72;;
36797;SDS011;22748;8.426;99.512;2022-10-12T03:42:20;11.23;;;6.88;;
36797;SDS011;22748;8.426;99.512;2022-10-12T03:44:51;8.35;;;6.78;;
36797;SDS011;22748;8.426;99.512;2022-10-12T03:47:24;8.05;;;6.60;;
36797;SDS011;22748;8.426;99.512;2022-10-12T03:49:55;9.65;;;7.30;;
36797;SDS011;22748;8.426;99.512;2022-10-12T03:52:26;9.38;;;7.03;;
36797;SDS011;22748;8.426;99.512;2022-10-12T03:54:56;7.22;;;6.53;;
36797;SDS011;22748;8.426;99.512;2022-10-12T03:57:26;8.05;;;7.13;;
36797;SDS011;22748;8.426;99.512;2022-10-12T03:59:56;9.35;;;7.20;;
36797;SDS011;22748;8.426;99.512;2022-10-12T04:02:25;8.93;;;7.03;;
36797;SDS011;22748;8.426;99.512;2022-10-12T04:04:55;7.20;;;6.20;;
36797;SDS011;22748;8.426;99.512;2022-10-12T04:07:31;17.83;;;13.38;;
36797;SDS011;22748;8.426;99.512;2022-10-12T04:10:02;7.30;;;6.50;;
36797;SDS011;22748;8.426;99.512;2022-10-12T04:12:32;9.27;;;5.80;;
36797;SDS011;22748;8.426;99.512;2022-10-12T04:15:02;11.95;;;6.82;;
36797;SDS011;22748;8.426;99.512;2022-10-12T04:17:33;10.38;;;6.20;;
36797;SDS011;22748;8.426;99.512;2022-10-12T04:20:08;11.77;;;6.13;;
36797;SDS011;22748;8.426;99.512;2022-10-12T04:22:42;7.30;;;5.10;;
36797;SDS011;22748;8.426;99.512;2022-10-12T04:25:12;14.77;;;5.82;;
36797;SDS011;22748;8.426;99.512;2022-10-12T04:27:42;5.40;;;4.47;;
36797;SDS011;22748;8.426;99.512;2022-10-12T04:30:13;7.72;;;5.15;;
36797;SDS011;22748;8.426;99.512;2022-10-12T04:32:43;7.90;;;4.82;;
36797;SDS011;22748;8.426;99.512;2022-10-12T04:35:14;7.22;;;5.68;;
36797;SDS011;22748;8.426;99.512;2022-10-12T04:37:47;6.45;;;4.78;;
36797;SDS011;22748;8.426;99.512;2022-10-12T04:40:16;8.20;;;5.10;;
36797;SDS011;22748;8.426;99.512;2022-10-12T04:42:45;7.53;;;5.13;;
36797;SDS011;22748;8.426;99.512;2022-10-12T04:45:15;6.88;;;4.78;;
36797;SDS011;22748;8.426;99.512;2022-10-12T04:47:44;9.27;;;5.55;;
36797;SDS011;22748;8.426;99.512;2022-10-12T04:50:14;6.80;;;5.05;;
36797;SDS011;22748;8.426;99.512;2022-10-12T04:52:48;7.53;;;5.25;;
36797;SDS011;22748;8.426;99.512;2022-10-12T04:55:17;7.75;;;5.50;;
36797;SDS011;22748;8.426;99.512;2022-10-12T04:57:47;6.18;;;5.40;;
36797;SDS011;22748;8.426;99.512;2022-10-12T05:00:19;10.45;;;6.20;;
36797;SDS011;22748;8.426;99.512;2022-10-12T05:02:49;8.45;;;5.63;;
36797;SDS011;22748;8.426;99.512;2022-10-12T05:05:22;7.32;;;5.70;;
36797;SDS011;22748;8.426;99.512;2022-10-12T05:07:53;6.30;;;5.70;;
36797;SDS011;22748;8.426;99.512;2022-10-12T05:12:54;8.77;;;5.47;;
36797;SDS011;22748;8.426;99.512;2022-10-12T05:15:23;7.93;;;5.53;;
36797;SDS011;22748;8.426;99.512;2022-10-12T05:17:54;11.93;;;5.70;;
36797;SDS011;22748;8.426;99.512;2022-10-12T05:20:25;6.97;;;5.95;;
36797;SDS011;22748;8.426;99.512;2022-10-12T05:22:57;6.63;;;5.18;;
36797;SDS011;22748;8.426;99.512;2022-10-12T05:25:28;8.02;;;5.22;;
36797;SDS011;22748;8.426;99.512;2022-10-12T05:28:01;7.88;;;3.90;;
36797;SDS011;22748;8.426;99.512;2022-10-12T05:30:33;11.65;;;6.82;;
36797;SDS011;22748;8.426;99.512;2022-10-12T05:33:04;6.82;;;4.75;;
36797;SDS011;22748;8.426;99.512;2022-10-12T05:38:04;4.47;;;3.92;;
36797;SDS011;22748;8.426;99.512;2022-10-12T05:43:05;33.03;;;20.83;;
36797;SDS011;22748;8.426;99.512;2022-10-12T05:45:36;16.30;;;9.98;;
36797;SDS011;22748;8.426;99.512;2022-10-12T05:50:33;12.18;;;7.60;;
36797;SDS011;22748;8.426;99.512;2022-10-12T05:53:04;9.50;;;5.38;;
36797;SDS011;22748;8.426;99.512;2022-10-12T05:55:34;8.60;;;3.85;;
36797;SDS011;22748;8.426;99.512;2022-10-12T05:58:03;4.63;;;2.83;;
36797;SDS011;22748;8.426;99.512;2022-10-12T06:00:33;5.68;;;3.20;;
36797;SDS011;22748;8.426;99.512;2022-10-12T06:03:05;4.63;;;3.03;;
36797;SDS011;22748;8.426;99.512;2022-10-12T06:08:05;3.88;;;3.47;;
36797;SDS011;22748;8.426;99.512;2022-10-12T06:10:35;6.03;;;4.35;;
36797;SDS011;22748;8.426;99.512;2022-10-12T06:13:11;6.53;;;3.80;;
36797;SDS011;22748;8.426;99.512;2022-10-12T06:15:44;7.82;;;4.75;;
36797;SDS011;22748;8.426;99.512;2022-10-12T06:18:14;9.75;;;7.13;;
36797;SDS011;22748;8.426;99.512;2022-10-12T06:20:45;7.57;;;4.85;;
36797;SDS011;22748;8.426;99.512;2022-10-12T06:23:18;11.65;;;5.32;;
36797;SDS011;22748;8.426;99.512;2022-10-12T06:25:49;7.00;;;4.05;;
36797;SDS011;22748;8.426;99.512;2022-10-12T06:28:19;7.28;;;4.10;;
36797;SDS011;22748;8.426;99.512;2022-10-12T06:30:52;8.40;;;3.92;;
36797;SDS011;22748;8.426;99.512;2022-10-12T06:33:22;5.57;;;3.53;;
36797;SDS011;22748;8.426;99.512;2022-10-12T06:35:52;6.80;;;3.70;;
36797;SDS011;22748;8.426;99.512;2022-10-12T06:38:24;4.80;;;4.25;;
36797;SDS011;22748;8.426;99.512;2022-10-12T06:43:25;7.55;;;3.70;;
36797;SDS011;22748;8.426;99.512;2022-10-12T06:48:28;4.85;;;3.67;;
36797;SDS011;22748;8.426;99.512;2022-10-12T06:50:58;5.85;;;4.15;;
36797;SDS011;22748;8.426;99.512;2022-10-12T06:53:29;5.80;;;3.85;;
36797;SDS011;22748;8.426;99.512;2022-10-12T06:56:04;6.30;;;3.88;;
36797;SDS011;22748;8.426;99.512;2022-10-12T06:58:34;6.03;;;4.38;;
36797;SDS011;22748;8.426;99.512;2022-10-12T07:01:05;5.75;;;4.13;;
36797;SDS011;22748;8.426;99.512;2022-10-12T07:03:37;5.05;;;3.78;;
36797;SDS011;22748;8.426;99.512;2022-10-12T07:06:10;5.40;;;4.20;;
36797;SDS011;22748;8.426;99.512;2022-10-12T07:08:43;5.97;;;3.95;;
36797;SDS011;22748;8.426;99.512;2022-10-12T07:11:15;5.38;;;3.88;;
36797;SDS011;22748;8.426;99.512;2022-10-12T07:13:45;4.88;;;3.90;;
36797;SDS011;22748;8.426;99.512;2022-10-12T07:16:14;7.63;;;4.32;;
36797;SDS011;22748;8.426;99.512;2022-10-12T07:18:44;5.80;;;3.90;;
36797;SDS011;22748;8.426;99.512;2022-10-12T07:21:14;6.95;;;5.07;;
36797;SDS011;22748;8.426;99.512;2022-10-12T07:23:45;5.15;;;4.65;;
36797;SDS011;22748;8.426;99.512;2022-10-12T07:26:15;4.07;;;3.45;;
36797;SDS011;22748;8.426;99.512;2022-10-12T07:28:48;6.00;;;3.55;;
36797;SDS011;22748;8.426;99.512;2022-10-12T07:31:18;5.60;;;4.05;;
36797;SDS011;22748;8.426;99.512;2022-10-12T07:33:51;6.75;;;4.25;;
36797;SDS011;22748;8.426;99.512;2022-10-12T07:36:24;5.30;;;3.55;;
36797;SDS011;22748;8.426;99.512;2022-10-12T07:38:57;8.32;;;3.80;;
36797;SDS011;22748;8.426;99.512;2022-10-12T07:43:56;4.93;;;4.07;;
36797;SDS011;22748;8.426;99.512;2022-10-12T07:46:27;5.38;;;4.05;;
36797;SDS011;22748;8.426;99.512;2022-10-12T07:48:58;4.88;;;3.60;;
36797;SDS011;22748;8.426;99.512;2022-10-12T07:51:28;5.60;;;3.65;;
36797;SDS011;22748;8.426;99.512;2022-10-12T07:53:59;4.00;;;3.08;;
36797;SDS011;22748;8.426;99.512;2022-10-12T07:59:00;3.95;;;3.55;;
36797;SDS011;22748;8.426;99.512;2022-10-12T08:01:30;6.00;;;3.67;;
36797;SDS011;22748;8.426;99.512;2022-10-12T08:03:59;5.88;;;3.58;;
36797;SDS011;22748;8.426;99.512;2022-10-12T08:06:31;5.95;;;3.30;;
36797;SDS011;22748;8.426;99.512;2022-10-12T08:09:04;5.72;;;3.53;;
36797;SDS011;22748;8.426;99.512;2022-10-12T08:11:36;8.65;;;5.47;;
36797;SDS011;22748;8.426;99.512;2022-10-12T08:14:08;10.00;;;7.38;;
36797;SDS011;22748;8.426;99.512;2022-10-12T08:16:42;6.70;;;4.30;;
36797;SDS011;22748;8.426;99.512;2022-10-12T08:19:14;5.75;;;4.22;;
36797;SDS011;22748;8.426;99.512;2022-10-12T08:21:47;5.38;;;3.72;;
36797;SDS011;22748;8.426;99.512;2022-10-12T08:24:19;6.05;;;3.70;;
36797;SDS011;22748;8.426;99.512;2022-10-12T08:26:48;4.60;;;2.92;;
36797;SDS011;22748;8.426;99.512;2022-10-12T08:29:18;5.85;;;3.25;;
36797;SDS011;22748;8.426;99.512;2022-10-12T08:31:50;7.07;;;3.30;;
36797;SDS011;22748;8.426;99.512;2022-10-12T08:34:19;5.10;;;3.33;;
36797;SDS011;22748;8.426;99.512;2022-10-12T08:36:50;5.38;;;3.88;;
36797;SDS011;22748;8.426;99.512;2022-10-12T08:39:22;4.57;;;3.28;;
36797;SDS011;22748;8.426;99.512;2022-10-12T08:41:55;9.05;;;6.18;;
36797;SDS011;22748;8.426;99.512;2022-10-12T08:44:39;10.32;;;4.15;;
36797;SDS011;22748;8.426;99.512;2022-10-12T08:47:19;9.13;;;4.25;;
36797;SDS011;22748;8.426;99.512;2022-10-12T08:49:56;7.50;;;3.95;;
36797;SDS011;22748;8.426;99.512;2022-10-12T08:52:28;6.97;;;3.72;;
36797;SDS011;22748;8.426;99.512;2022-10-12T08:55:03;4.20;;;3.67;;
36797;SDS011;22748;8.426;99.512;2022-10-12T08:57:46;5.03;;;3.60;;
36797;SDS011;22748;8.426;99.512;2022-10-12T09:00:18;5.18;;;3.35;;
36797;SDS011;22748;8.426;99.512;2022-10-12T09:02:50;6.38;;;3.60;;
36797;SDS011;22748;8.426;99.512;2022-10-12T09:05:30;7.28;;;3.80;;
36797;SDS011;22748;8.426;99.512;2022-10-12T09:08:06;10.30;;;4.82;;
36797;SDS011;22748;8.426;99.512;2022-10-12T09:10:54;7.18;;;5.03;;
36797;SDS011;22748;8.426;99.512;2022-10-12T09:16:11;8.02;;;4.47;;
36797;SDS011;22748;8.426;99.512;2022-10-12T09:18:49;7.60;;;5.03;;
36797;SDS011;22748;8.426;99.512;2022-10-12T09:21:23;9.43;;;5.32;;
36797;SDS011;22748;8.426;99.512;2022-10-12T09:23:56;6.55;;;4.93;;
36797;SDS011;22748;8.426;99.512;2022-10-12T09:26:31;7.45;;;5.63;;
36797;SDS011;22748;8.426;99.512;2022-10-12T09:29:02;9.68;;;4.05;;
36797;SDS011;22748;8.426;99.512;2022-10-12T09:32:03;6.07;;;3.80;;
36797;SDS011;22748;8.426;99.512;2022-10-12T09:34:40;5.10;;;4.45;;
36797;SDS011;22748;8.426;99.512;2022-10-12T09:37:20;8.25;;;7.28;;
36797;SDS011;22748;8.426;99.512;2022-10-12T09:39:54;8.75;;;5.28;;
36797;SDS011;22748;8.426;99.512;2022-10-12T09:42:26;9.32;;;4.97;;
36797;SDS011;22748;8.426;99.512;2022-10-12T09:44:56;5.75;;;5.07;;
36797;SDS011;22748;8.426;99.512;2022-10-12T09:47:32;5.53;;;3.83;;
36797;SDS011;22748;8.426;99.512;2022-10-12T09:50:04;9.23;;;5.20;;
36797;SDS011;22748;8.426;99.512;2022-10-12T09:52:40;7.82;;;4.00;;
36797;SDS011;22748;8.426;99.512;2022-10-12T09:55:22;6.68;;;4.53;;
36797;SDS011;22748;8.426;99.512;2022-10-12T09:57:55;5.10;;;4.57;;
36797;SDS011;22748;8.426;99.512;2022-10-12T10:00:29;6.97;;;4.72;;
36797;SDS011;22748;8.426;99.512;2022-10-12T10:03:01;9.55;;;4.35;;
36797;SDS011;22748;8.426;99.512;2022-10-12T10:05:31;7.43;;;3.92;;
36797;SDS011;22748;8.426;99.512;2022-10-12T10:08:16;4.32;;;3.40;;
36797;SDS011;22748;8.426;99.512;2022-10-12T10:10:51;5.93;;;3.40;;
36797;SDS011;22748;8.426;99.512;2022-10-12T10:13:25;5.00;;;3.03;;
36797;SDS011;22748;8.426;99.512;2022-10-12T10:16:03;4.53;;;3.13;;
36797;SDS011;22748;8.426;99.512;2022-10-12T10:18:37;5.53;;;3.25;;
36797;SDS011;22748;8.426;99.512;2022-10-12T10:37:16;4.00;;;3.00;;
36797;SDS011;22748;8.426;99.512;2022-10-12T10:39:52;5.90;;;2.75;;
36797;SDS011;22748;8.426;99.512;2022-10-12T10:42:27;6.60;;;3.30;;
36797;SDS011;22748;8.426;99.512;2022-10-12T10:45:02;9.32;;;2.92;;
36797;SDS011;22748;8.426;99.512;2022-10-12T10:47:42;12.60;;;3.72;;
36797;SDS011;22748;8.426;99.512;2022-10-12T10:50:22;9.20;;;3.28;;
36797;SDS011;22748;8.426;99.512;2022-10-12T10:55:30;11.48;;;3.17;;
36797;SDS011;22748;8.426;99.512;2022-10-12T10:58:13;10.18;;;2.90;;
36797;SDS011;22748;8.426;99.512;2022-10-12T11:00:50;8.25;;;4.90;;
36797;SDS011;22748;8.426;99.512;2022-10-12T11:03:24;7.63;;;3.97;;
36797;SDS011;22748;8.426;99.512;2022-10-12T11:06:06;22.25;;;12.82;;
36797;SDS011;22748;8.426;99.512;2022-10-12T11:08:47;17.30;;;10.88;;
36797;SDS011;22748;8.426;99.512;2022-10-12T11:11:22;20.38;;;10.90;;
36797;SDS011;22748;8.426;99.512;2022-10-12T11:13:57;17.25;;;9.38;;
36797;SDS011;22748;8.426;99.512;2022-10-12T11:16:30;10.45;;;6.55;;
36797;SDS011;22748;8.426;99.512;2022-10-12T11:19:09;26.27;;;13.63;;
36797;SDS011;22748;8.426;99.512;2022-10-12T11:21:48;29.42;;;17.10;;
36797;SDS011;22748;8.426;99.512;2022-10-12T11:24:22;31.13;;;15.15;;
36797;SDS011;22748;8.426;99.512;2022-10-12T11:26:59;81.78;;;41.33;;
36797;SDS011;22748;8.426;99.512;2022-10-12T11:29:36;35.00;;;20.02;;
36797;SDS011;22748;8.426;99.512;2022-10-12T11:32:06;28.17;;;17.33;;
36797;SDS011;22748;8.426;99.512;2022-10-12T11:34:51;15.55;;;8.82;;
36797;SDS011;22748;8.426;99.512;2022-10-12T11:37:27;9.27;;;6.95;;
36797;SDS011;22748;8.426;99.512;2022-10-12T11:40:08;12.13;;;6.07;;
36797;SDS011;22748;8.426;99.512;2022-10-12T11:42:48;26.40;;;5.93;;
36797;SDS011;22748;8.426;99.512;2022-10-12T11:45:23;11.20;;;5.65;;
36797;SDS011;22748;8.426;99.512;2022-10-12T11:47:59;7.78;;;5.35;;
36797;SDS011;22748;8.426;99.512;2022-10-12T11:50:34;9.43;;;5.70;;
36797;SDS011;22748;8.426;99.512;2022-10-12T11:53:11;8.63;;;5.13;;
36797;SDS011;22748;8.426;99.512;2022-10-12T11:55:53;13.43;;;5.13;;
36797;SDS011;22748;8.426;99.512;2022-10-12T11:58:29;8.52;;;4.55;;
36797;SDS011;22748;8.426;99.512;2022-10-12T12:01:07;9.70;;;5.55;;
36797;SDS011;22748;8.426;99.512;2022-10-12T12:06:49;9.98;;;6.00;;
36797;SDS011;22748;8.426;99.512;2022-10-12T12:09:29;9.38;;;6.13;;
36797;SDS011;22748;8.426;99.512;2022-10-12T12:12:18;7.22;;;5.68;;
36797;SDS011;22748;8.426;99.512;2022-10-12T12:23:36;8.50;;;5.35;;
36797;SDS011;22748;8.426;99.512;2022-10-12T12:26:13;17.65;;;12.50;;
36797;SDS011;22748;8.426;99.512;2022-10-12T12:28:45;21.77;;;15.27;;
36797;SDS011;22748;8.426;99.512;2022-10-12T12:31:23;20.25;;;13.95;;
36797;SDS011;22748;8.426;99.512;2022-10-12T12:34:01;14.70;;;10.50;;
36797;SDS011;22748;8.426;99.512;2022-10-12T12:36:34;13.57;;;8.82;;
36797;SDS011;22748;8.426;99.512;2022-10-12T12:39:06;11.95;;;8.27;;
36797;SDS011;22748;8.426;99.512;2022-10-12T12:41:52;11.10;;;8.30;;
36797;SDS011;22748;8.426;99.512;2022-10-12T12:44:35;23.17;;;10.43;;
36797;SDS011;22748;8.426;99.512;2022-10-12T12:47:18;18.98;;;9.20;;
36797;SDS011;22748;8.426;99.512;2022-10-12T12:49:51;13.25;;;8.77;;
36797;SDS011;22748;8.426;99.512;2022-10-12T12:52:25;14.10;;;8.70;;
36797;SDS011;22748;8.426;99.512;2022-10-12T12:55:04;13.75;;;8.82;;
36797;SDS011;22748;8.426;99.512;2022-10-12T12:58:05;12.02;;;8.25;;
36797;SDS011;22748;8.426;99.512;2022-10-12T13:00:47;10.77;;;7.80;;
36797;SDS011;22748;8.426;99.512;2022-10-12T13:03:42;14.80;;;8.13;;
36797;SDS011;22748;8.426;99.512;2022-10-12T13:09:39;10.63;;;7.68;;
36797;SDS011;22748;8.426;99.512;2022-10-12T13:12:32;12.52;;;8.00;;
36797;SDS011;22748;8.426;99.512;2022-10-12T13:15:22;11.40;;;7.57;;
36797;SDS011;22748;8.426;99.512;2022-10-12T13:18:16;22.23;;;16.38;;
36797;SDS011;22748;8.426;99.512;2022-10-12T13:21:11;30.80;;;24.63;;
36797;SDS011;22748;8.426;99.512;2022-10-12T13:23:48;21.30;;;14.77;;
36797;SDS011;22748;8.426;99.512;2022-10-12T13:26:28;20.20;;;12.55;;
36797;SDS011;22748;8.426;99.512;2022-10-12T13:29:04;16.55;;;10.90;;
36797;SDS011;22748;8.426;99.512;2022-10-12T13:31:46;19.58;;;9.63;;
36797;SDS011;22748;8.426;99.512;2022-10-12T13:34:25;18.25;;;10.02;;
36797;SDS011;22748;8.426;99.512;2022-10-12T13:37:04;14.75;;;9.55;;
36797;SDS011;22748;8.426;99.512;2022-10-12T13:39:44;13.98;;;9.70;;
36797;SDS011;22748;8.426;99.512;2022-10-12T13:42:21;11.40;;;9.13;;
36797;SDS011;22748;8.426;99.512;2022-10-12T13:45:05;19.85;;;13.23;;
36797;SDS011;22748;8.426;99.512;2022-10-12T13:47:45;14.90;;;9.80;;
36797;SDS011;22748;8.426;99.512;2022-10-12T13:50:19;14.70;;;8.82;;
36797;SDS011;22748;8.426;99.512;2022-10-12T13:52:57;16.88;;;8.75;;
36797;SDS011;22748;8.426;99.512;2022-10-12T13:55:30;12.15;;;8.52;;
36797;SDS011;22748;8.426;99.512;2022-10-12T13:58:01;16.85;;;9.52;;
36797;SDS011;22748;8.426;99.512;2022-10-12T14:00:56;14.70;;;8.55;;
36797;SDS011;22748;8.426;99.512;2022-10-12T14:03:37;12.15;;;7.88;;
36797;SDS011;22748;8.426;99.512;2022-10-12T14:06:23;13.82;;;8.63;;
36797;SDS011;22748;8.426;99.512;2022-10-12T14:08:55;17.05;;;8.02;;
36797;SDS011;22748;8.426;99.512;2022-10-12T14:11:27;11.73;;;7.22;;
36797;SDS011;22748;8.426;99.512;2022-10-12T14:13:56;10.27;;;7.70;;
36797;SDS011;22748;8.426;99.512;2022-10-12T14:16:29;12.65;;;7.80;;
36797;SDS011;22748;8.426;99.512;2022-10-12T14:21:50;12.10;;;7.88;;
36797;SDS011;22748;8.426;99.512;2022-10-12T14:24:21;10.27;;;7.95;;
36797;SDS011;22748;8.426;99.512;2022-10-12T14:26:54;12.77;;;8.68;;
36797;SDS011;22748;8.426;99.512;2022-10-12T14:29:29;13.55;;;8.82;;
36797;SDS011;22748;8.426;99.512;2022-10-12T14:32:01;12.20;;;8.60;;
36797;SDS011;22748;8.426;99.512;2022-10-12T14:34:35;10.05;;;8.52;;
36797;SDS011;22748;8.426;99.512;2022-10-12T14:39:54;12.15;;;8.80;;
36797;SDS011;22748;8.426;99.512;2022-10-12T14:42:30;11.25;;;8.18;;
36797;SDS011;22748;8.426;99.512;2022-10-12T14:45:02;14.95;;;10.38;;
36797;SDS011;22748;8.426;99.512;2022-10-12T14:47:36;19.88;;;13.07;;
36797;SDS011;22748;8.426;99.512;2022-10-12T14:50:08;15.77;;;12.82;;
36797;SDS011;22748;8.426;99.512;2022-10-12T14:52:48;19.30;;;11.90;;
36797;SDS011;22748;8.426;99.512;2022-10-12T14:55:21;16.52;;;13.05;;
36797;SDS011;22748;8.426;99.512;2022-10-12T14:57:54;21.27;;;15.63;;
36797;SDS011;22748;8.426;99.512;2022-10-12T15:00:26;16.92;;;13.45;;
36797;SDS011;22748;8.426;99.512;2022-10-12T15:02:57;14.32;;;12.50;;
36797;SDS011;22748;8.426;99.512;2022-10-12T15:05:28;15.70;;;12.38;;
36797;SDS011;22748;8.426;99.512;2022-10-12T15:08:00;15.48;;;13.55;;
36797;SDS011;22748;8.426;99.512;2022-10-12T15:10:35;17.85;;;15.45;;
36797;SDS011;22748;8.426;99.512;2022-10-12T15:13:09;13.95;;;11.25;;
36797;SDS011;22748;8.426;99.512;2022-10-12T15:15:43;12.75;;;9.63;;
36797;SDS011;22748;8.426;99.512;2022-10-12T15:18:15;10.07;;;8.60;;
36797;SDS011;22748;8.426;99.512;2022-10-12T15:20:46;11.52;;;8.80;;
36797;SDS011;22748;8.426;99.512;2022-10-12T15:23:20;14.02;;;8.05;;
36797;SDS011;22748;8.426;99.512;2022-10-12T15:25:52;11.95;;;6.95;;
36797;SDS011;22748;8.426;99.512;2022-10-12T15:28:25;13.98;;;7.13;;
36797;SDS011;22748;8.426;99.512;2022-10-12T15:30:58;9.40;;;7.10;;
36797;SDS011;22748;8.426;99.512;2022-10-12T15:33:29;11.40;;;6.80;;
36797;SDS011;22748;8.426;99.512;2022-10-12T15:36:00;9.68;;;7.40;;
36797;SDS011;22748;8.426;99.512;2022-10-12T15:38:32;10.10;;;7.33;;
36797;SDS011;22748;8.426;99.512;2022-10-12T15:41:01;15.85;;;7.40;;
36797;SDS011;22748;8.426;99.512;2022-10-12T15:43:32;10.23;;;7.38;;
36797;SDS011;22748;8.426;99.512;2022-10-12T15:46:03;12.63;;;7.03;;
36797;SDS011;22748;8.426;99.512;2022-10-12T15:48:33;11.13;;;7.22;;
36797;SDS011;22748;8.426;99.512;2022-10-12T15:51:07;9.93;;;7.35;;
36797;SDS011;22748;8.426;99.512;2022-10-12T15:53:45;8.55;;;7.13;;
36797;SDS011;22748;8.426;99.512;2022-10-12T15:56:16;10.68;;;6.78;;
36797;SDS011;22748;8.426;99.512;2022-10-12T15:58:47;12.48;;;7.10;;
36797;SDS011;22748;8.426;99.512;2022-10-12T16:01:19;10.60;;;7.03;;
36797;SDS011;22748;8.426;99.512;2022-10-12T16:06:19;9.52;;;7.22;;
36797;SDS011;22748;8.426;99.512;2022-10-12T16:11:19;9.40;;;6.30;;
36797;SDS011;22748;8.426;99.512;2022-10-12T16:13:50;9.32;;;6.75;;
36797;SDS011;22748;8.426;99.512;2022-10-12T16:16:23;7.88;;;6.30;;
36797;SDS011;22748;8.426;99.512;2022-10-12T16:18:56;9.48;;;6.97;;
36797;SDS011;22748;8.426;99.512;2022-10-12T16:23:57;12.18;;;6.00;;
36797;SDS011;22748;8.426;99.512;2022-10-12T16:26:27;8.82;;;5.90;;
36797;SDS011;22748;8.426;99.512;2022-10-12T16:28:56;10.03;;;6.50;;
36797;SDS011;22748;8.426;99.512;2022-10-12T16:31:30;11.90;;;6.57;;
36797;SDS011;22748;8.426;99.512;2022-10-12T16:34:01;7.75;;;6.03;;
36797;SDS011;22748;8.426;99.512;2022-10-12T16:36:30;7.97;;;6.22;;
36797;SDS011;22748;8.426;99.512;2022-10-12T16:39:03;11.95;;;6.40;;
36797;SDS011;22748;8.426;99.512;2022-10-12T16:41:33;9.18;;;6.00;;
36797;SDS011;22748;8.426;99.512;2022-10-12T16:44:04;8.95;;;5.90;;
36797;SDS011;22748;8.426;99.512;2022-10-12T16:49:05;7.50;;;6.13;;
36797;SDS011;22748;8.426;99.512;2022-10-12T16:51:36;12.63;;;6.40;;
36797;SDS011;22748;8.426;99.512;2022-10-12T16:54:10;6.60;;;5.68;;
36797;SDS011;22748;8.426;99.512;2022-10-12T16:56:40;8.73;;;5.78;;
36797;SDS011;22748;8.426;99.512;2022-10-12T16:59:10;9.27;;;6.10;;
36797;SDS011;22748;8.426;99.512;2022-10-12T17:01:41;10.60;;;5.97;;
36797;SDS011;22748;8.426;99.512;2022-10-12T17:04:12;10.07;;;6.43;;
36797;SDS011;22748;8.426;99.512;2022-10-12T17:06:41;10.25;;;6.50;;
36797;SDS011;22748;8.426;99.512;2022-10-12T17:09:12;9.60;;;7.22;;
36797;SDS011;22748;8.426;99.512;2022-10-12T17:14:14;9.43;;;6.65;;
36797;SDS011;22748;8.426;99.512;2022-10-12T17:16:44;12.70;;;6.22;;
36797;SDS011;22748;8.426;99.512;2022-10-12T17:19:18;9.85;;;6.50;;
36797;SDS011;22748;8.426;99.512;2022-10-12T17:21:52;10.38;;;8.35;;
36797;SDS011;22748;8.426;99.512;2022-10-12T17:24:26;13.13;;;7.88;;
36797;SDS011;22748;8.426;99.512;2022-10-12T17:26:57;10.48;;;8.88;;
36797;SDS011;22748;8.426;99.512;2022-10-12T17:29:28;11.13;;;8.52;;
36797;SDS011;22748;8.426;99.512;2022-10-12T17:32:02;12.70;;;8.63;;
36797;SDS011;22748;8.426;99.512;2022-10-12T17:37:05;14.73;;;10.23;;
36797;SDS011;22748;8.426;99.512;2022-10-12T17:39:41;15.65;;;11.40;;
36797;SDS011;22748;8.426;99.512;2022-10-12T17:42:14;14.40;;;10.68;;
36797;SDS011;22748;8.426;99.512;2022-10-12T17:44:46;14.10;;;10.95;;
36797;SDS011;22748;8.426;99.512;2022-10-12T17:47:17;14.80;;;10.20;;
36797;SDS011;22748;8.426;99.512;2022-10-12T17:49:48;13.55;;;10.25;;
36797;SDS011;22748;8.426;99.512;2022-10-12T17:52:17;11.43;;;9.68;;
36797;SDS011;22748;8.426;99.512;2022-10-12T17:54:49;17.88;;;9.63;;
36797;SDS011;22748;8.426;99.512;2022-10-12T17:57:20;12.73;;;9.23;;
36797;SDS011;22748;8.426;99.512;2022-10-12T17:59:51;11.85;;;8.80;;